Time;durP1;ratioP1;P1;durP2;ratioP2;P2;SDS_P1;SDS_P2;PMS_P1;PMS_P2;Temp;Humidity;BMP_temperature;BMP_pressure;BME280_temperature;BME280_humidity;BME280_pressure;Samples;Min_cycle;Max_cycle;Signal;HPM_P1;HPM_P2
2021/09/06 00:02:19;;;;;;;4.70;2.67;;;;;;;12.58;80.83;101142.03;2855542;83;20967;-63
2021/09/06 00:06:20;;;;;;;4.75;3.45;;;;;;;12.54;81.17;101135.20;2855364;83;20994;-63
2021/09/06 00:10:50;;;;;;;9.30;3.67;;;;;;;12.48;81.30;101133.88;2855460;83;20984;-63
2021/09/06 00:14:50;;;;;;;4.47;3.62;;;;;;;12.44;81.48;101127.05;2855501;83;20979;-63
2021/09/06 00:18:52;;;;;;;5.10;3.30;;;;;;;12.38;81.70;101132.40;2855677;83;21035;-63
2021/09/06 00:22:54;;;;;;;4.20;3.72;;;;;;;12.32;81.83;101136.84;2855855;83;20995;-63
2021/09/06 00:26:56;;;;;;;4.37;3.22;;;;;;;12.34;81.91;101136.23;2855766;83;20983;-63
2021/09/06 00:31:07;;;;;;;4.58;3.42;;;;;;;12.26;82.19;101131.98;2855816;83;20960;-63
2021/09/06 00:35:09;;;;;;;4.78;2.55;;;;;;;12.25;82.48;101130.28;2855827;82;20995;-64
2021/09/06 00:39:34;;;;;;;4.90;3.37;;;;;;;12.22;82.50;101131.35;2879217;82;21023;-63
2021/09/06 00:43:36;;;;;;;4.67;3.00;;;;;;;12.14;82.58;101129.27;2955906;80;20979;-63
2021/09/06 00:47:40;;;;;;;8.05;3.67;;;;;;;12.06;82.88;101125.00;2955895;80;20955;-63
2021/09/06 00:52:01;;;;;;;7.15;4.15;;;;;;;11.98;83.11;101122.88;2928744;78;20951;-63
2021/09/06 00:56:04;;;;;;;7.20;4.42;;;;;;;12.04;83.21;101121.60;2894126;82;21001;-63
2021/09/06 01:00:09;;;;;;;5.78;4.05;;;;;;;12.12;82.85;101116.53;2910747;81;20972;-63
2021/09/06 01:04:29;;;;;;;4.70;4.17;;;;;;;12.19;82.57;101120.09;2910967;81;20945;-64
2021/09/06 01:08:31;;;;;;;5.40;4.40;;;;;;;12.23;82.52;101117.55;2910790;82;20996;-63
2021/09/06 01:12:36;;;;;;;5.00;3.65;;;;;;;12.26;82.35;101110.64;2910764;81;20976;-63
2021/09/06 01:16:38;;;;;;;5.23;4.07;;;;;;;12.25;82.33;101114.28;2897923;81;21025;-63
2021/09/06 01:20:41;;;;;;;8.20;4.10;;;;;;;12.23;82.31;101109.55;2889598;82;21335;-64
2021/09/06 01:24:43;;;;;;;5.97;3.83;;;;;;;12.26;82.43;101113.31;2889736;82;20966;-64
2021/09/06 01:28:44;;;;;;;4.65;3.55;;;;;;;12.30;82.42;101117.44;2889850;82;20989;-63
2021/09/06 01:32:46;;;;;;;6.50;4.40;;;;;;;12.35;82.15;101116.59;2889755;82;20954;-63
2021/09/06 01:36:48;;;;;;;5.70;3.85;;;;;;;12.37;82.07;101115.16;2889787;82;21005;-63
2021/09/06 01:40:49;;;;;;;3.50;3.20;;;;;;;12.38;81.93;101110.19;2889525;82;21017;-64
2021/09/06 01:45:13;;;;;;;8.85;5.35;;;;;;;12.35;81.98;101107.26;2889876;82;20982;-63
2021/09/06 01:49:14;;;;;;;6.12;3.77;;;;;;;12.34;82.14;101114.89;2889687;82;21041;-63
2021/09/06 01:53:16;;;;;;;7.75;3.95;;;;;;;12.32;82.12;101114.17;2939070;81;20978;-63
2021/09/06 01:57:18;;;;;;;5.00;3.90;;;;;;;12.28;82.22;101108.70;2942952;81;20970;-63
2021/09/06 02:01:21;;;;;;;7.92;4.25;;;;;;;12.25;82.28;101119.61;2943123;80;20992;-63
2021/09/06 02:05:22;;;;;;;4.92;3.60;;;;;;;12.21;82.58;101118.15;2943118;80;20974;-63
2021/09/06 02:09:25;;;;;;;8.10;4.20;;;;;;;12.16;82.65;101119.83;2943004;80;20954;-64
2021/09/06 02:13:27;;;;;;;6.30;4.20;;;;;;;12.15;82.67;101118.13;2943029;80;21011;-63
2021/09/06 02:17:55;;;;;;;4.25;3.85;;;;;;;12.10;82.93;101112.30;2943171;80;21023;-63
2021/09/06 02:21:57;;;;;;;4.95;4.12;;;;;;;12.05;83.02;101113.10;2942976;81;20980;-63
2021/09/06 02:27:06;;;;;;;5.08;3.55;;;;;;;12.01;82.99;101120.50;2943179;81;21047;-63
2021/09/06 02:31:08;;;;;;;6.67;3.83;;;;;;;11.96;83.15;101116.80;2942974;80;21014;-63
2021/09/06 02:35:11;;;;;;;9.18;4.50;;;;;;;11.86;83.49;101120.64;2942900;80;21003;-64
2021/09/06 02:39:12;;;;;;;6.65;4.25;;;;;;;11.79;83.74;101119.41;2942963;80;21019;-62
2021/09/06 02:43:16;;;;;;;10.03;4.90;;;;;;;11.76;83.96;101130.77;2942897;80;20948;-63
2021/09/06 02:47:18;;;;;;;6.47;5.30;;;;;;;11.77;84.00;101123.97;2943167;80;20912;-63
2021/09/06 02:51:19;;;;;;;6.70;4.30;;;;;;;11.79;83.91;101118.53;2930842;80;21021;-63
2021/09/06 02:55:23;;;;;;;10.90;5.78;;;;;;;11.76;83.75;101119.60;2910743;81;20922;-63
2021/09/06 02:59:25;;;;;;;5.47;4.37;;;;;;;11.69;83.88;101115.23;2910737;82;20973;-63
2021/09/06 03:03:27;;;;;;;7.05;4.55;;;;;;;11.65;84.07;101118.23;2893446;82;20958;-63
2021/09/06 03:07:37;;;;;;;5.08;4.55;;;;;;;11.61;84.03;101116.26;2889688;82;20983;-64
2021/09/06 03:11:40;;;;;;;4.80;3.85;;;;;;;11.48;84.14;101120.30;2903530;82;20953;-64
2021/09/06 03:15:42;;;;;;;5.10;3.75;;;;;;;11.34;84.35;101117.31;2910673;82;21003;-64
2021/09/06 03:19:43;;;;;;;7.30;4.10;;;;;;;11.19;85.09;101114.41;2910756;82;20989;-63
2021/09/06 03:23:59;;;;;;;5.78;4.47;;;;;;;11.20;85.61;101113.45;2910555;81;20981;-63
2021/09/06 03:28:00;;;;;;;4.78;3.70;;;;;;;11.31;85.41;101115.34;2867343;82;20989;-63
2021/09/06 03:32:07;;;;;;;5.33;4.08;;;;;;;11.32;85.20;101111.24;2910753;81;20933;-63
2021/09/06 03:36:09;;;;;;;8.45;3.58;;;;;;;11.17;85.27;101112.34;2910485;81;21011;-63
2021/09/06 03:40:11;;;;;;;5.92;3.87;;;;;;;10.98;86.01;101112.31;2910679;82;20996;-63
2021/09/06 03:44:13;;;;;;;8.98;4.67;;;;;;;10.84;86.51;101102.64;2910730;81;20984;-63
2021/09/06 03:48:40;;;;;;;9.45;5.05;;;;;;;10.82;86.99;101114.71;2897389;81;20936;-64
2021/09/06 03:52:44;;;;;;;7.45;5.25;;;;;;;10.80;86.80;101114.44;2926011;80;20992;-63
2021/09/06 03:56:46;;;;;;;5.72;4.28;;;;;;;10.78;87.10;101124.34;2942956;80;20964;-63
2021/09/06 04:00:49;;;;;;;9.73;6.53;;;;;;;10.82;87.01;101116.04;2943184;80;20997;-64
2021/09/06 04:04:53;;;;;;;7.08;4.72;;;;;;;10.74;87.01;101115.73;2943106;80;20977;-63
2021/09/06 04:08:55;;;;;;;8.18;5.30;;;;;;;10.76;87.25;101111.62;2943136;80;20989;-64
2021/09/06 04:12:57;;;;;;;7.78;4.90;;;;;;;10.84;86.99;101117.28;2943180;80;20922;-64
2021/09/06 04:16:59;;;;;;;7.30;5.22;;;;;;;10.88;86.82;101113.90;2927791;80;20993;-63
2021/09/06 04:21:01;;;;;;;8.65;5.35;;;;;;;10.93;86.36;101113.12;2931376;80;21023;-64
2021/09/06 04:25:03;;;;;;;7.62;5.05;;;;;;;10.90;86.16;101117.30;2950844;80;20995;-64
2021/09/06 04:29:05;;;;;;;8.25;5.67;;;;;;;10.85;86.40;101121.64;2929516;81;20984;-64
2021/09/06 04:33:07;;;;;;;5.22;4.62;;;;;;;10.89;86.66;101133.77;2943143;80;20980;-63
2021/09/06 04:37:13;;;;;;;7.58;6.17;;;;;;;10.94;86.73;101132.95;2927478;80;20988;-64
2021/09/06 04:41:14;;;;;;;5.35;4.35;;;;;;;10.99;87.15;101133.48;2943064;81;20996;-63
2021/09/06 04:45:17;;;;;;;6.70;5.35;;;;;;;11.29;88.48;101134.95;2942885;80;20980;-63
2021/09/06 04:49:18;;;;;;;12.00;4.95;;;;;;;11.83;87.25;101126.20;2942943;81;21003;-64
2021/09/06 04:53:57;;;;;;;5.55;4.75;;;;;;;12.33;85.87;101126.53;2952117;80;20955;-64
2021/09/06 04:57:58;;;;;;;7.95;5.12;;;;;;;12.78;84.01;101136.97;2955716;80;21011;-64
2021/09/06 05:02:00;;;;;;;8.35;5.70;;;;;;;13.33;82.67;101130.88;2955732;80;20923;-64
2021/09/06 05:06:02;;;;;;;5.10;4.15;;;;;;;13.80;80.24;101144.93;2955755;80;21014;-64
2021/09/06 05:10:04;;;;;;;9.65;5.30;;;;;;;14.13;79.20;101141.75;2955665;80;20963;-64
2021/09/06 05:14:06;;;;;;;7.97;5.35;;;;;;;14.49;77.49;101141.95;2955799;80;20954;-65
2021/09/06 05:18:10;;;;;;;5.72;4.35;;;;;;;14.64;76.00;101147.81;2955599;80;21564;-64
2021/09/06 05:22:12;;;;;;;6.85;5.10;;;;;;;14.84;74.89;101148.83;2955701;80;20987;-65
2021/09/06 05:26:33;;;;;;;9.08;5.42;;;;;;;14.89;74.02;101155.97;2955587;80;20983;-64
2021/09/06 05:30:35;;;;;;;9.73;6.08;;;;;;;15.04;74.26;101159.64;2955858;80;20939;-64
2021/09/06 05:34:37;;;;;;;7.90;5.78;;;;;;;15.27;73.88;101150.94;2955480;80;20963;-65
2021/09/06 05:38:39;;;;;;;7.22;5.17;;;;;;;15.44;73.68;101142.73;2955722;80;20963;-64
2021/09/06 05:42:41;;;;;;;6.72;4.80;;;;;;;15.66;72.49;101142.14;2955764;80;21010;-64
2021/09/06 05:46:45;;;;;;;6.53;5.00;;;;;;;15.68;72.29;101144.19;2955556;80;20943;-64
2021/09/06 05:50:59;;;;;;;9.75;4.03;;;;;;;15.70;72.34;101144.89;2954463;80;20943;-64
2021/09/06 05:55:00;;;;;;;6.08;4.37;;;;;;;15.84;72.65;101148.52;2926274;81;20986;-64
2021/09/06 05:59:38;;;;;;;6.90;4.30;;;;;;;16.16;71.90;101155.16;2892068;82;20985;-64
2021/09/06 06:03:40;;;;;;;13.95;11.33;;;;;;;16.26;70.53;101152.81;2897193;82;21517;-64
2021/09/06 06:08:15;;;;;;;10.45;7.22;;;;;;;16.27;70.75;101153.65;2957468;80;20953;-64
2021/09/06 06:12:16;;;;;;;10.60;6.10;;;;;;;16.27;70.88;101152.30;2892087;82;20965;-64
2021/09/06 06:16:18;;;;;;;5.97;4.60;;;;;;;16.34;71.31;101148.08;2897096;82;20983;-65
2021/09/06 06:20:20;;;;;;;25.55;7.03;;;;;;;16.50;71.35;101150.66;2957866;80;20953;-64
2021/09/06 06:25:17;;;;;;;10.70;8.43;;;;;;;16.68;70.65;101152.95;2892204;82;20978;-64
2021/09/06 06:29:19;;;;;;;8.95;8.10;;;;;;;16.73;70.13;101151.70;2897171;82;21018;-65
2021/09/06 06:33:20;;;;;;;9.73;5.12;;;;;;;16.91;70.45;101160.70;2957901;80;20972;-64
2021/09/06 06:37:22;;;;;;;8.25;4.17;;;;;;;17.17;70.33;101155.17;2892116;82;20950;-64
2021/09/06 06:41:24;;;;;;;5.25;4.08;;;;;;;17.46;68.95;101156.38;2896980;82;20971;-64
2021/09/06 06:45:26;;;;;;;5.20;3.87;;;;;;;17.58;68.06;101154.32;2958511;80;20976;-64
2021/09/06 06:49:28;;;;;;;6.65;4.20;;;;;;;17.54;66.77;101148.42;2892719;81;21005;-64
2021/09/06 06:53:30;;;;;;;6.92;3.52;;;;;;;17.61;67.46;101157.22;2899067;79;21001;-64
2021/09/06 06:57:42;;;;;;;5.10;2.37;;;;;;;17.75;67.23;101158.55;2899698;80;21032;-65
2021/09/06 07:01:44;;;;;;;5.05;2.80;;;;;;;17.92;67.03;101162.27;2899055;82;20979;-64
2021/09/06 07:05:46;;;;;;;7.17;3.52;;;;;;;18.06;66.99;101160.91;2965327;80;21000;-65
2021/09/06 07:09:47;;;;;;;6.78;2.83;;;;;;;18.25;66.20;101161.23;2965239;80;21456;-64
2021/09/06 07:14:31;;;;;;;4.47;2.50;;;;;;;18.45;65.55;101169.14;2965207;80;20925;-64
2021/09/06 07:18:32;;;;;;;7.37;4.47;;;;;;;18.58;64.60;101172.29;2965126;80;20941;-64
2021/09/06 07:22:43;;;;;;;5.03;3.90;;;;;;;18.72;64.37;101170.03;2965250;80;20989;-64
2021/09/06 07:26:45;;;;;;;3.70;2.70;;;;;;;18.81;65.52;101178.02;2965177;80;21016;-63
2021/09/06 07:30:46;;;;;;;4.30;2.70;;;;;;;18.96;64.04;101183.66;2965083;80;20982;-64
2021/09/06 07:35:13;;;;;;;3.85;2.15;;;;;;;19.00;63.44;101188.27;2965259;80;20969;-64
2021/09/06 07:39:16;;;;;;;20.02;3.75;;;;;;;19.15;62.73;101183.13;2942864;81;20996;-64
2021/09/06 07:43:19;;;;;;;17.55;3.52;;;;;;;19.23;59.65;101188.55;2942864;80;20973;-64
2021/09/06 07:47:21;;;;;;;13.60;2.30;;;;;;;19.33;59.78;101187.59;2942916;80;20960;-64
2021/09/06 07:51:23;;;;;;;6.67;1.70;;;;;;;19.45;58.56;101191.67;2942731;80;21061;-64
2021/09/06 07:55:24;;;;;;;2.30;1.60;;;;;;;19.43;57.32;101189.64;2942826;81;20966;-64
2021/09/06 07:59:26;;;;;;;3.98;1.27;;;;;;;19.53;57.59;101193.56;2942883;80;21028;-64
2021/09/06 08:03:28;;;;;;;2.90;2.20;;;;;;;19.63;57.03;101179.94;2942676;81;20958;-64
2021/09/06 08:07:29;;;;;;;3.95;1.35;;;;;;;19.73;56.57;101167.16;2942963;81;20942;-64
2021/09/06 08:11:31;;;;;;;4.97;1.77;;;;;;;19.82;56.03;101174.25;2942786;81;21016;-64
2021/09/06 08:15:33;;;;;;;1.65;1.42;;;;;;;19.94;55.96;101177.52;2942910;80;20959;-64
2021/09/06 08:19:35;;;;;;;2.33;1.30;;;;;;;20.05;54.62;101181.78;2942854;80;21020;-64
2021/09/06 08:23:37;;;;;;;1.75;1.17;;;;;;;20.14;54.41;101183.95;2942791;81;21021;-63
2021/09/06 08:27:39;;;;;;;29.52;17.23;;;;;;;20.20;54.14;101179.74;2942978;81;20977;-63
2021/09/06 08:31:41;;;;;;;3.80;3.25;;;;;;;20.19;52.77;101182.97;2847728;83;21528;-63
2021/09/06 08:36:00;;;;;;;7.85;5.65;;;;;;;20.31;53.96;101177.22;2965528;80;20985;-64
2021/09/06 08:40:03;;;;;;;4.10;2.62;;;;;;;20.42;52.47;101191.75;2965511;80;21004;-64
2021/09/06 08:44:05;;;;;;;9.03;1.60;;;;;;;20.43;51.86;101189.87;2965490;80;20937;-64
2021/09/06 08:48:19;;;;;;;11.30;2.87;;;;;;;20.46;52.20;101192.27;2965399;80;21020;-63
2021/09/06 08:52:41;;;;;;;8.15;2.37;;;;;;;20.50;51.74;101185.51;2946677;80;21084;-63
2021/09/06 08:56:43;;;;;;;2.15;1.70;;;;;;;20.50;51.87;101185.51;2955771;80;20990;-63
2021/09/06 09:00:52;;;;;;;2.95;2.35;;;;;;;20.52;49.46;101190.23;2955746;80;21106;-63
2021/09/06 09:05:10;;;;;;;17.07;9.15;;;;;;;20.48;48.84;101184.84;2955724;80;20984;-63
2021/09/06 09:09:12;;;;;;;7.72;4.95;;;;;;;20.54;48.95;101189.55;2955851;80;20989;-64
2021/09/06 09:13:14;;;;;;;15.75;10.30;;;;;;;20.71;49.97;101188.19;2935738;80;20941;-63
2021/09/06 09:17:20;;;;;;;10.32;5.65;;;;;;;20.84;51.06;101179.09;2955913;80;20945;-63
2021/09/06 09:21:21;;;;;;;2.67;1.22;;;;;;;20.88;50.36;101182.27;2955773;80;21000;-63
2021/09/06 09:25:45;;;;;;;3.72;1.50;;;;;;;20.93;49.68;101179.39;2955817;80;21031;-63
2021/09/06 09:29:47;;;;;;;1.35;1.25;;;;;;;20.95;48.79;101185.47;2955697;80;21008;-64
2021/09/06 09:33:52;;;;;;;2.15;1.25;;;;;;;21.01;49.51;101179.02;2955641;80;20985;-63
2021/09/06 09:38:01;;;;;;;1.57;1.47;;;;;;;21.06;48.92;101182.91;2955849;80;20973;-63
2021/09/06 09:42:11;;;;;;;1.05;0.95;;;;;;;21.14;50.00;101180.69;2904342;82;20977;-64
2021/09/06 09:46:13;;;;;;;2.33;1.25;;;;;;;21.25;51.05;101183.52;2955624;80;20937;-64
2021/09/06 09:50:14;;;;;;;2.92;1.22;;;;;;;21.34;49.60;101173.52;2955831;80;20953;-63
2021/09/06 09:54:27;;;;;;;2.33;1.40;;;;;;;21.36;48.15;101164.70;2955351;80;20969;-64
2021/09/06 09:58:29;;;;;;;1.90;1.20;;;;;;;21.47;49.29;101162.12;2955551;80;20993;-63
2021/09/06 10:02:37;;;;;;;2.87;2.02;;;;;;;21.52;48.94;101161.10;2955163;80;20989;-63
2021/09/06 10:06:40;;;;;;;11.60;6.83;;;;;;;21.56;48.56;101161.08;2955648;80;20987;-63
2021/09/06 10:10:43;;;;;;;17.45;3.05;;;;;;;21.63;48.72;101159.86;2955735;80;21045;-63
2021/09/06 10:14:57;;;;;;;5.33;4.30;;;;;;;21.69;48.87;101151.87;2955695;80;20985;-63
2021/09/06 10:19:04;;;;;;;3.58;2.62;;;;;;;21.73;47.73;101153.72;2955652;80;20977;-63
2021/09/06 10:23:12;;;;;;;3.52;2.47;;;;;;;21.75;49.09;101154.38;2955317;80;20977;-63
2021/09/06 10:27:14;;;;;;;7.62;2.40;;;;;;;21.79;48.30;101147.58;2955621;80;20981;-63
2021/09/06 10:31:23;;;;;;;1.47;1.25;;;;;;;21.80;47.67;101142.50;2955694;80;20984;-63
2021/09/06 10:35:28;;;;;;;1.75;1.20;;;;;;;21.77;47.98;101137.97;2955812;80;20945;-63
2021/09/06 10:59:37;;;;;;;3.95;1.40;;;;;;;22.17;47.78;101114.80;2956654;80;21058;-63
2021/09/06 11:03:40;;;;;;;2.42;1.05;;;;;;;22.24;47.10;101117.12;2901401;82;21031;-63
2021/09/06 11:07:41;;;;;;;3.05;1.40;;;;;;;22.27;47.30;101115.41;2876053;83;21036;-64
2021/09/06 11:11:44;;;;;;;2.52;1.15;;;;;;;22.34;47.73;101110.09;2876095;83;20980;-64
2021/09/06 11:16:07;;;;;;;7.30;1.82;;;;;;;22.47;46.65;101108.14;2876129;83;20980;-63
2021/09/06 11:20:14;;;;;;;4.95;1.27;;;;;;;22.58;46.28;101109.02;2876101;83;20989;-64
2021/09/06 11:24:20;;;;;;;3.37;1.42;;;;;;;22.59;47.08;101102.57;2876134;83;20958;-63
2021/09/06 11:28:22;;;;;;;3.92;1.42;;;;;;;22.68;47.43;101105.54;2876053;83;21071;-63
2021/09/06 11:32:24;;;;;;;3.92;1.55;;;;;;;22.78;46.62;101094.91;2876134;83;20921;-64
2021/09/06 11:36:27;;;;;;;2.20;1.47;;;;;;;22.83;45.99;101089.80;2876069;83;21012;-63
2021/09/06 11:40:51;;;;;;;2.65;1.50;;;;;;;22.87;45.92;101092.95;2876158;83;20988;-64
2021/09/06 11:44:57;;;;;;;2.10;1.22;;;;;;;22.85;45.59;101086.38;2876179;83;20984;-63
2021/09/06 11:49:18;;;;;;;2.40;1.45;;;;;;;22.88;45.31;101083.78;2876143;83;21004;-63
2021/09/06 11:53:20;;;;;;;3.55;1.27;;;;;;;22.98;45.02;101085.70;2876220;83;20960;-63
2021/09/06 11:57:29;;;;;;;2.37;1.47;;;;;;;22.98;46.24;101084.34;2875945;83;21020;-64
2021/09/06 12:01:31;;;;;;;7.78;1.10;;;;;;;23.04;45.93;101081.41;2895095;80;20988;-63
2021/09/06 12:05:47;;;;;;;12.33;2.85;;;;;;;23.08;45.83;101073.20;2885495;81;21019;-64
2021/09/06 12:09:47;;;;;;;5.95;1.92;;;;;;;23.15;46.66;101063.80;2891999;82;20999;-64
2021/09/06 12:13:59;;;;;;;15.80;3.12;;;;;;;23.32;46.08;101055.78;2892441;82;21020;-63
2021/09/06 12:18:14;;;;;;;5.53;2.92;;;;;;;23.37;46.78;101055.18;2892320;82;21019;-64
2021/09/06 12:22:21;;;;;;;2.08;1.32;;;;;;;23.40;46.75;101054.83;2892592;81;20965;-64
2021/09/06 12:26:23;;;;;;;36.53;4.67;;;;;;;23.43;45.94;101059.01;2892405;82;20975;-64
2021/09/06 12:30:33;;;;;;;3.00;1.90;;;;;;;23.45;47.06;101048.30;2892322;82;20976;-63
2021/09/06 12:34:35;;;;;;;3.17;1.77;;;;;;;23.49;45.63;101040.08;2892573;81;20976;-64
2021/09/06 12:38:39;;;;;;;8.75;1.92;;;;;;;23.54;45.14;101044.41;2892322;80;21024;-64
2021/09/06 12:42:40;;;;;;;21.07;4.10;;;;;;;23.63;46.05;101034.79;2892479;82;20952;-63
2021/09/06 12:47:06;;;;;;;2.30;1.57;;;;;;;23.70;46.39;101030.25;2892447;82;21016;-63
2021/09/06 12:51:08;;;;;;;2.05;1.82;;;;;;;23.73;46.02;101033.92;2884237;82;21047;-63
2021/09/06 12:55:10;;;;;;;10.10;2.10;;;;;;;23.76;45.12;101032.70;2892353;82;20973;-64
2021/09/06 12:59:17;;;;;;;2.72;1.90;;;;;;;23.78;45.21;101021.98;2892090;81;21043;-64
2021/09/06 13:03:18;;;;;;;2.90;1.87;;;;;;;23.85;46.73;101030.16;2885506;82;21012;-62
2021/09/06 13:07:21;;;;;;;3.70;1.60;;;;;;;23.88;45.28;101014.86;2890747;82;20999;-62
2021/09/06 13:11:23;;;;;;;2.85;1.75;;;;;;;23.89;44.66;101022.47;2890202;82;20963;-63
2021/09/06 13:15:37;;;;;;;2.55;1.90;;;;;;;23.87;45.03;101013.68;2861985;82;20964;-65
2021/09/06 13:19:39;;;;;;;4.37;2.05;;;;;;;23.85;45.19;101022.55;2887261;81;21016;-65
2021/09/06 13:23:41;;;;;;;2.80;1.70;;;;;;;23.90;44.60;101014.14;2887771;81;21019;-63
2021/09/06 13:27:42;;;;;;;7.25;2.02;;;;;;;23.92;45.06;101009.84;2887017;81;20991;-63
2021/09/06 13:31:45;;;;;;;6.70;2.12;;;;;;;23.98;44.87;100998.72;2886989;82;20972;-64
2021/09/06 13:35:47;;;;;;;3.27;1.95;;;;;;;23.97;44.47;101001.94;2886906;82;21096;-63
2021/09/06 13:40:08;;;;;;;4.35;1.62;;;;;;;24.02;44.69;100995.95;2886861;82;21161;-65
2021/09/06 13:44:09;;;;;;;3.05;1.70;;;;;;;24.06;44.53;100994.51;2886751;82;20995;-65
2021/09/06 13:48:12;;;;;;;5.00;1.62;;;;;;;24.00;43.99;100996.13;2886603;82;21003;-64
2021/09/06 13:52:14;;;;;;;3.58;1.90;;;;;;;24.00;43.64;101001.56;2886981;82;20944;-62
2021/09/06 13:56:18;;;;;;;5.35;3.20;;;;;;;24.00;43.78;100989.84;2887240;82;21011;-63
2021/09/06 14:00:33;;;;;;;3.42;2.20;;;;;;;23.94;43.73;100988.75;2886891;82;21008;-64
2021/09/06 14:04:36;;;;;;;1.90;1.52;;;;;;;23.96;43.01;100980.73;2886743;82;21023;-64
2021/09/06 14:08:38;;;;;;;3.02;2.00;;;;;;;23.92;43.50;100974.53;2887080;82;20941;-63
2021/09/06 14:13:03;;;;;;;5.12;2.20;;;;;;;23.89;43.56;100974.93;2886739;82;21020;-63
2021/09/06 14:17:04;;;;;;;4.60;2.15;;;;;;;23.94;43.31;100969.73;2886560;82;20964;-64
2021/09/06 14:21:07;;;;;;;2.20;1.95;;;;;;;23.96;42.88;100971.73;2886762;82;21003;-63
2021/09/06 14:25:10;;;;;;;4.47;2.35;;;;;;;23.97;43.02;100976.13;2886926;81;20996;-63
2021/09/06 14:29:29;;;;;;;5.10;2.55;;;;;;;24.03;43.99;100969.95;2866874;82;20980;-64
2021/09/06 14:33:36;;;;;;;4.72;2.30;;;;;;;24.08;43.58;100970.72;2877831;82;20988;-65
2021/09/06 14:37:37;;;;;;;5.45;1.77;;;;;;;24.08;43.76;100967.47;2869620;82;20964;-64
2021/09/06 14:41:39;;;;;;;6.45;2.60;;;;;;;24.06;42.90;100969.55;2853506;83;20991;-64
2021/09/06 14:46:15;;;;;;;7.83;3.05;;;;;;;24.08;42.83;100957.95;2874118;83;20985;-64
2021/09/06 14:50:17;;;;;;;3.95;2.25;;;;;;;24.10;42.82;100959.95;2849921;83;20968;-63
2021/09/06 14:54:37;;;;;;;3.98;2.40;;;;;;;24.16;42.85;100950.67;2781271;85;20995;-64
2021/09/06 14:58:39;;;;;;;4.55;2.40;;;;;;;24.11;43.63;100952.66;2832579;83;21061;-64
2021/09/06 15:02:40;;;;;;;9.83;3.45;;;;;;;24.08;43.07;100948.45;2888482;81;20939;-61
2021/09/06 15:06:42;;;;;;;2.90;2.05;;;;;;;24.01;42.88;100944.83;2888722;82;20971;-61
2021/09/06 15:10:47;;;;;;;6.03;2.37;;;;;;;23.86;43.50;100946.27;2853141;83;20956;-61
2021/09/06 15:14:49;;;;;;;10.38;2.62;;;;;;;23.75;43.85;100950.38;2853657;83;20952;-62
2021/09/06 15:19:26;;;;;;;2.33;1.72;;;;;;;23.67;43.55;100943.20;2853466;83;21047;-60
2021/09/06 15:23:29;;;;;;;3.70;2.40;;;;;;;23.69;43.68;100945.74;2853598;83;21022;-61
2021/09/06 15:27:37;;;;;;;17.23;6.15;;;;;;;23.67;43.86;100944.56;2853630;83;20972;-61
2021/09/06 15:31:46;;;;;;;8.20;2.12;;;;;;;23.69;43.63;100944.38;2851984;83;21048;-61
2021/09/06 15:35:54;;;;;;;3.52;2.00;;;;;;;23.71;43.22;100942.84;2902405;82;20926;-63
2021/09/06 15:40:21;;;;;;;3.33;2.33;;;;;;;23.70;43.90;100947.42;2903049;82;20895;-60
2021/09/06 15:44:25;;;;;;;5.95;2.55;;;;;;;23.67;43.49;100944.56;2903241;82;21024;-60
2021/09/06 15:48:48;;;;;;;3.12;2.17;;;;;;;23.66;44.38;100937.99;2903327;81;21470;-60
2021/09/06 15:52:52;;;;;;;5.67;2.10;;;;;;;23.62;43.81;100934.00;2902989;82;30514;-60
2021/09/06 15:56:53;;;;;;;5.90;2.45;;;;;;;23.58;44.53;100936.25;2902868;82;21019;-60
2021/09/06 16:01:01;;;;;;;12.63;3.02;;;;;;;23.47;44.40;100937.63;2903046;82;21122;-61
2021/09/06 16:05:03;;;;;;;5.25;2.33;;;;;;;23.33;44.86;100929.04;2893881;82;21001;-61
2021/09/06 16:09:05;;;;;;;7.47;2.10;;;;;;;23.21;45.54;100934.97;2918093;81;21023;-64
2021/09/06 16:13:07;;;;;;;2.70;2.50;;;;;;;23.11;45.84;100933.94;2918038;81;20983;-60
2021/09/06 16:17:08;;;;;;;4.72;1.92;;;;;;;23.05;46.45;100926.55;2918105;81;20990;-64
2021/09/06 16:21:10;;;;;;;3.77;2.08;;;;;;;22.99;46.44;100934.61;2902789;81;21000;-62
2021/09/06 16:25:37;;;;;;;3.42;2.02;;;;;;;22.87;46.55;100931.07;2865771;83;20956;-62
2021/09/06 16:29:40;;;;;;;42.77;8.57;;;;;;;22.77;46.72;100931.87;2860670;82;21047;-64
2021/09/06 16:33:42;;;;;;;4.75;2.37;;;;;;;22.74;47.58;100928.20;2908817;80;20999;-66
2021/09/06 16:37:44;;;;;;;9.85;3.62;;;;;;;22.68;47.81;100930.65;2899173;82;20956;-65
2021/09/06 16:41:46;;;;;;;5.58;2.33;;;;;;;22.60;48.14;100925.85;2849571;83;21183;-66
2021/09/06 16:45:48;;;;;;;4.50;2.20;;;;;;;22.47;47.81;100929.24;2899253;82;21103;-67
2021/09/06 16:50:44;;;;;;;4.70;2.20;;;;;;;22.35;47.90;100931.03;2899870;82;20995;-63
2021/09/06 16:54:46;;;;;;;9.05;2.77;;;;;;;22.25;48.20;100933.20;2899867;81;21201;-64
2021/09/06 16:58:58;;;;;;;4.75;2.30;;;;;;;22.11;48.92;100930.83;2899727;82;21496;-63
2021/09/06 17:03:07;;;;;;;3.77;2.55;;;;;;;22.00;49.49;100927.22;2871864;82;21004;-63
2021/09/06 17:07:09;;;;;;;4.33;2.00;;;;;;;21.82;50.26;100931.97;2857700;83;21007;-63
2021/09/06 17:11:11;;;;;;;2.58;2.37;;;;;;;21.64;51.18;100927.38;2843714;83;20987;-63
2021/09/06 17:15:14;;;;;;;4.95;1.95;;;;;;;21.43;51.74;100932.12;2908485;82;20960;-63
2021/09/06 17:19:22;;;;;;;4.45;2.17;;;;;;;21.26;52.26;100927.69;2908497;82;20987;-64
2021/09/06 17:23:37;;;;;;;5.53;2.35;;;;;;;21.08;52.60;100921.21;2908779;82;20925;-63
2021/09/06 17:27:38;;;;;;;5.95;2.05;;;;;;;20.90;52.63;100932.33;2898992;82;20936;-64
2021/09/06 17:31:49;;;;;;;4.33;2.33;;;;;;;20.75;52.86;100927.31;2908771;81;20990;-63
2021/09/06 17:35:51;;;;;;;6.40;2.83;;;;;;;20.61;53.17;100922.16;2908610;82;21159;-63
2021/09/06 17:40:14;;;;;;;5.87;1.72;;;;;;;20.47;53.81;100918.34;2908256;82;20967;-63
2021/09/06 17:44:16;;;;;;;8.50;3.22;;;;;;;20.35;54.30;100922.77;2919829;81;21001;-63
2021/09/06 17:48:32;;;;;;;5.33;2.10;;;;;;;20.19;55.30;100916.06;2910034;81;20995;-63
2021/09/06 17:52:36;;;;;;;5.58;2.67;;;;;;;19.99;56.45;100921.86;2908342;82;20956;-63
2021/09/06 17:56:49;;;;;;;7.28;2.40;;;;;;;19.82;57.12;100915.11;2908531;81;20908;-63
2021/09/06 18:00:53;;;;;;;4.97;2.65;;;;;;;19.66;57.36;100925.95;2908292;82;21373;-63
2021/09/06 18:04:54;;;;;;;3.20;2.00;;;;;;;19.54;57.21;100924.94;2967595;80;21011;-63
2021/09/06 18:08:58;;;;;;;6.97;3.42;;;;;;;19.43;56.51;100929.84;2969764;80;20975;-64
2021/09/06 18:13:00;;;;;;;5.22;2.98;;;;;;;19.34;55.82;100926.30;2970072;79;21122;-63
2021/09/06 18:17:02;;;;;;;15.20;3.05;;;;;;;19.27;55.60;100928.81;2970497;80;21049;-63
2021/09/06 18:21:39;;;;;;;3.85;2.80;;;;;;;19.16;55.70;100929.13;2969797;80;20948;-63
2021/09/06 18:25:43;;;;;;;7.65;4.45;;;;;;;19.07;55.87;100929.13;2968851;80;21026;-64
2021/09/06 18:29:45;;;;;;;5.47;3.80;;;;;;;18.91;56.63;100925.88;2969721;80;21150;-63
2021/09/06 18:33:49;;;;;;;15.43;5.22;;;;;;;18.73;57.49;100925.16;2970016;80;21336;-63
2021/09/06 18:37:53;;;;;;;4.95;3.45;;;;;;;18.59;57.55;100921.24;2969825;80;21278;-63
2021/09/06 18:41:55;;;;;;;10.03;4.05;;;;;;;18.47;57.96;100922.02;2962112;80;21003;-64
2021/09/06 18:45:58;;;;;;;4.72;2.60;;;;;;;18.34;58.00;100918.43;2960647;80;20926;-63
2021/09/06 18:50:00;;;;;;;4.95;2.37;;;;;;;18.27;58.02;100923.61;2961589;80;21059;-63
2021/09/06 18:54:06;;;;;;;10.78;7.70;;;;;;;18.18;58.39;100923.25;2970533;80;21042;-63
2021/09/06 18:58:07;;;;;;;;;;;;;;;18.04;58.57;100922.83;2973066;80;20979;-63
2021/09/06 19:02:09;;;;;;;4.47;3.33;;;;;;;17.89;59.24;100928.45;2970165;79;20077;-63
2021/09/06 19:06:12;;;;;;;5.15;3.65;;;;;;;17.75;59.15;100928.50;2979318;78;21034;-63
2021/09/06 19:10:15;;;;;;;19.65;6.20;;;;;;;17.68;59.18;100932.31;2980146;80;21023;-62
2021/09/06 19:14:17;;;;;;;4.55;3.30;;;;;;;17.62;58.81;100937.84;2979958;80;20991;-63
2021/09/06 19:18:19;;;;;;;9.25;3.58;;;;;;;17.60;58.59;100936.30;2980312;80;20946;-63
2021/09/06 19:22:21;;;;;;;8.88;4.53;;;;;;;17.60;58.30;100930.91;2979688;80;20951;-63
2021/09/06 19:26:23;;;;;;;6.60;3.83;;;;;;;17.54;59.24;100933.23;2978290;80;21042;-63